createdAt,value
2022-08-28T00:00:39.605Z,2.15
2022-08-28T00:05:41.982Z,2.00
2022-08-28T00:10:44.989Z,2.70
2022-08-28T00:15:49.960Z,2.72
2022-08-28T00:20:52.530Z,2.28
2022-08-28T00:25:54.123Z,2.65
2022-08-28T00:30:59.043Z,2.00
2022-08-28T00:36:02.329Z,2.67
2022-08-28T00:41:04.915Z,2.92
2022-08-28T00:46:15.178Z,2.78
2022-08-28T00:51:38.311Z,2.67
2022-08-28T00:56:40.808Z,2.53
2022-08-28T01:01:43.995Z,2.50
2022-08-28T01:06:48.483Z,2.67
2022-08-28T01:11:53.012Z,2.35
2022-08-28T01:16:58.013Z,2.75
2022-08-28T01:22:22.685Z,2.53
2022-08-28T01:27:24.349Z,2.45
2022-08-28T01:32:35.970Z,2.78
2022-08-28T01:37:37.894Z,2.28
2022-08-28T01:42:41.195Z,2.58
2022-08-28T01:47:44.814Z,2.42
2022-08-28T01:52:46.362Z,2.40
2022-08-28T01:57:53.727Z,2.60
2022-08-28T02:02:56.871Z,2.50
2022-08-28T02:07:59.984Z,2.35
2022-08-28T02:13:02.268Z,2.58
2022-08-28T02:18:05.764Z,3.13
2022-08-28T02:23:07.350Z,3.10
2022-08-28T02:28:09.074Z,2.78
2022-08-28T02:33:10.699Z,2.80
2022-08-28T02:38:12.366Z,3.33
2022-08-28T02:43:14.369Z,2.80
2022-08-28T02:48:15.810Z,3.05
2022-08-28T02:53:18.448Z,2.65
2022-08-28T02:58:19.998Z,3.58
2022-08-28T03:04:21.346Z,3.38
2022-08-28T03:09:22.745Z,3.90
2022-08-28T03:19:27.623Z,3.10
2022-08-28T03:24:29.138Z,3.20
2022-08-28T03:29:31.126Z,3.75
2022-08-28T03:34:33.495Z,3.30
2022-08-28T03:39:34.939Z,3.05
2022-08-28T03:44:38.116Z,3.60
2022-08-28T03:49:39.751Z,2.72
2022-08-28T03:54:41.275Z,3.80
2022-08-28T03:59:43.694Z,2.65
2022-08-28T04:04:47.003Z,3.47
2022-08-28T04:09:48.470Z,2.60
2022-08-28T04:14:49.982Z,3.88
2022-08-28T04:19:54.510Z,2.55
2022-08-28T04:24:55.932Z,3.38
2022-08-28T04:29:57.441Z,2.50
2022-08-28T04:34:59.013Z,3.67
2022-08-28T04:40:00.582Z,3.88
2022-08-28T04:45:02.486Z,3.78
2022-08-28T04:50:06.315Z,4.53
2022-08-28T04:55:08.291Z,3.90
2022-08-28T05:00:11.513Z,3.88
2022-08-28T05:05:12.998Z,3.53
2022-08-28T05:10:14.843Z,3.17
2022-08-28T05:15:16.554Z,4.38
2022-08-28T05:20:17.962Z,3.47
2022-08-28T05:30:20.949Z,3.90
2022-08-28T05:35:22.365Z,3.88
2022-08-28T05:40:24.011Z,3.20
2022-08-28T05:45:25.670Z,3.78
2022-08-28T05:50:27.781Z,2.58
2022-08-28T05:55:29.361Z,4.32
2022-08-28T06:00:30.745Z,3.40
2022-08-28T06:05:32.603Z,3.35
2022-08-28T06:15:44.924Z,3.63
2022-08-28T06:20:47.455Z,2.70
2022-08-28T06:25:51.430Z,3.70
2022-08-28T06:31:18.633Z,3.55
2022-08-28T06:36:15.838Z,4.30
2022-08-28T06:41:19.167Z,3.05
2022-08-28T06:46:21.808Z,3.47
2022-08-28T06:51:25.003Z,3.13
2022-08-28T06:56:27.255Z,3.08
2022-08-28T07:01:32.419Z,3.20
2022-08-28T07:06:39.432Z,2.97
2022-08-28T07:11:43.555Z,2.53
2022-08-28T07:16:45.224Z,2.45
2022-08-28T07:21:47.964Z,2.65
2022-08-28T07:26:49.387Z,2.42
2022-08-28T07:31:53.484Z,2.13
2022-08-28T07:36:56.125Z,2.50
2022-08-28T07:41:57.575Z,2.40
2022-08-28T07:47:03.900Z,2.40
2022-08-28T07:52:07.227Z,2.30
2022-08-28T07:57:10.202Z,1.95
2022-08-28T08:02:11.651Z,1.63
2022-08-28T08:07:14.330Z,1.80
2022-08-28T08:12:15.942Z,2.42
2022-08-28T08:17:17.359Z,1.75
2022-08-28T08:22:18.826Z,1.85
2022-08-28T08:27:20.231Z,1.50
2022-08-28T08:32:21.683Z,1.88
2022-08-28T08:37:23.181Z,1.70
2022-08-28T08:42:27.935Z,1.60
2022-08-28T08:47:41.321Z,2.08
2022-08-28T08:53:17.759Z,1.40
2022-08-28T08:58:34.338Z,2.08
2022-08-28T09:03:49.622Z,1.75
2022-08-28T09:08:59.905Z,1.67
2022-08-28T09:14:15.991Z,1.77
2022-08-28T09:19:21.270Z,1.58
2022-08-28T09:24:26.163Z,2.08
2022-08-28T09:29:42.729Z,1.52
2022-08-28T09:35:12.874Z,1.70
2022-08-28T09:40:25.708Z,2.07
2022-08-28T09:45:29.108Z,1.25
2022-08-28T09:50:39.240Z,1.77
2022-08-28T09:55:51.244Z,1.90
2022-08-28T10:01:07.556Z,1.65
2022-08-28T10:06:14.415Z,2.00
2022-08-28T10:11:51.667Z,1.95
2022-08-28T10:17:12.807Z,1.65
2022-08-28T10:22:49.649Z,1.60
2022-08-28T10:28:09.676Z,1.98
2022-08-28T10:33:29.780Z,1.38
2022-08-28T10:38:52.931Z,1.40
2022-08-28T10:44:00.130Z,1.30
2022-08-28T10:49:10.957Z,1.80
2022-08-28T10:55:02.928Z,1.10
2022-08-28T11:00:12.338Z,1.80
2022-08-28T11:05:14.626Z,1.38
2022-08-28T11:10:20.449Z,1.30
2022-08-28T11:15:22.066Z,1.35
2022-08-28T11:20:28.895Z,1.38
2022-08-28T11:25:49.937Z,1.35
2022-08-28T11:36:29.766Z,1.10
2022-08-28T11:41:38.518Z,1.40
2022-08-28T11:46:39.940Z,1.30
2022-08-28T11:51:53.608Z,1.30
2022-08-28T11:57:19.259Z,1.00
2022-08-28T12:02:43.949Z,1.40
2022-08-28T12:07:48.378Z,1.05
2022-08-28T12:12:53.934Z,1.25
2022-08-28T12:18:11.654Z,1.10
2022-08-28T12:23:32.000Z,1.27
2022-08-28T12:28:39.239Z,1.30
2022-08-28T12:33:46.392Z,1.10
2022-08-28T12:38:51.486Z,1.20
2022-08-28T12:44:00.106Z,1.20
2022-08-28T12:49:03.871Z,1.38
2022-08-28T12:54:08.335Z,1.15
2022-08-28T12:59:27.208Z,1.00
2022-08-28T13:04:37.297Z,1.20
2022-08-28T13:09:52.296Z,1.00
2022-08-28T13:14:53.945Z,0.90
2022-08-28T13:20:03.778Z,1.15
2022-08-28T13:25:06.488Z,1.17
2022-08-28T13:30:14.097Z,1.25
2022-08-28T13:35:18.263Z,0.90
2022-08-28T13:40:56.965Z,1.33
2022-08-28T13:45:53.752Z,1.63
2022-08-28T13:51:03.543Z,0.77
2022-08-28T13:56:08.967Z,0.93
2022-08-28T14:01:11.829Z,1.30
2022-08-28T14:06:16.800Z,1.05
2022-08-28T14:11:18.235Z,1.13
2022-08-28T14:16:19.738Z,1.27
2022-08-28T14:21:22.139Z,0.90
2022-08-28T14:26:23.597Z,0.98
2022-08-28T14:31:26.604Z,0.77
2022-08-28T14:36:30.364Z,1.00
2022-08-28T14:41:32.254Z,1.25
2022-08-28T14:46:36.263Z,1.05
2022-08-28T14:51:41.294Z,0.95
2022-08-28T14:56:44.260Z,0.95
2022-08-28T15:01:46.458Z,1.10
2022-08-28T15:06:50.394Z,1.30
2022-08-28T15:11:51.943Z,1.20
2022-08-28T15:16:53.585Z,1.10
2022-08-28T15:21:56.075Z,1.17
2022-08-28T15:26:59.450Z,1.10
2022-08-28T15:32:00.939Z,0.90
2022-08-28T15:37:02.448Z,1.10
2022-08-28T15:42:10.255Z,1.10
2022-08-28T15:47:13.684Z,1.40
2022-08-28T15:52:15.101Z,1.50
2022-08-28T15:57:17.541Z,1.10
2022-08-28T16:02:21.700Z,1.27
2022-08-28T16:07:23.369Z,1.30
2022-08-28T16:12:25.473Z,1.25
2022-08-28T16:17:27.123Z,1.20
2022-08-28T16:22:28.746Z,1.10
2022-08-28T16:27:30.554Z,1.00
2022-08-28T16:32:32.168Z,1.10
2022-08-28T16:37:38.296Z,1.30
2022-08-28T16:42:42.123Z,1.25
2022-08-28T16:47:53.023Z,1.10
2022-08-28T16:52:54.428Z,1.20
2022-08-28T16:57:56.051Z,1.42
2022-08-28T17:02:57.547Z,1.20
2022-08-28T17:07:59.906Z,1.13
2022-08-28T17:13:01.925Z,1.60
2022-08-28T17:18:03.461Z,1.20
2022-08-28T17:23:05.770Z,1.48
2022-08-28T17:28:07.433Z,1.40
2022-08-28T17:33:08.876Z,1.40
2022-08-28T17:38:10.334Z,1.20
2022-08-28T17:43:11.787Z,1.23
2022-08-28T17:48:13.293Z,1.20
2022-08-28T17:53:14.821Z,1.30
2022-08-28T17:58:16.317Z,1.50
2022-08-28T18:03:17.806Z,1.55
2022-08-28T18:08:19.499Z,1.33
2022-08-28T18:13:21.036Z,1.52
2022-08-28T18:18:27.479Z,1.20
2022-08-28T18:23:39.721Z,1.30
2022-08-28T18:28:41.136Z,1.30
2022-08-28T18:33:42.612Z,1.50
2022-08-28T18:38:44.620Z,1.60
2022-08-28T18:43:46.968Z,1.60
2022-08-28T18:48:48.519Z,1.50
2022-08-28T18:53:50.083Z,1.50
2022-08-28T18:58:52.630Z,1.27
2022-08-28T19:03:55.363Z,1.42
2022-08-28T19:08:56.884Z,1.38
2022-08-28T19:13:59.396Z,1.30
2022-08-28T19:19:05.123Z,1.25
2022-08-28T19:24:06.959Z,1.55
2022-08-28T19:29:08.911Z,1.20
2022-08-28T19:34:12.831Z,1.38
2022-08-28T19:39:14.285Z,1.33
2022-08-28T19:44:15.723Z,1.42
2022-08-28T19:49:17.607Z,1.00
2022-08-28T19:54:19.156Z,1.20
2022-08-28T19:59:25.168Z,1.58
2022-08-28T20:04:29.718Z,2.58
2022-08-28T20:09:31.670Z,1.88
2022-08-28T20:14:34.371Z,1.38
2022-08-28T20:19:36.047Z,1.55
2022-08-28T20:24:39.118Z,1.40
2022-08-28T20:29:40.583Z,0.98
2022-08-28T20:34:44.480Z,0.90
2022-08-28T20:39:47.250Z,1.05
2022-08-28T20:44:48.686Z,0.90
2022-08-28T20:49:50.168Z,1.27
2022-08-28T20:54:51.566Z,0.90
2022-08-28T20:59:54.018Z,1.20
2022-08-28T21:04:55.795Z,1.30
2022-08-28T21:10:05.396Z,0.98
2022-08-28T21:15:12.398Z,1.00
2022-08-28T21:20:14.856Z,1.23
2022-08-28T21:25:17.322Z,0.85
2022-08-28T21:30:21.597Z,1.00
2022-08-28T21:35:23.007Z,1.00
2022-08-28T21:40:24.506Z,1.30
2022-08-28T21:45:25.997Z,1.10
2022-08-28T21:50:29.991Z,1.23
2022-08-28T21:55:31.505Z,1.10
2022-08-28T22:00:32.917Z,1.42
2022-08-28T22:05:34.368Z,1.30
2022-08-28T22:10:39.950Z,1.10
2022-08-28T22:15:44.167Z,1.00
2022-08-28T22:21:05.335Z,1.10
2022-08-28T22:26:12.815Z,1.20
2022-08-28T22:31:14.503Z,1.33
2022-08-28T22:36:17.313Z,1.00
2022-08-28T22:41:19.363Z,1.20
2022-08-28T22:46:22.193Z,1.05
2022-08-28T22:51:23.665Z,1.15
2022-08-28T22:56:25.083Z,1.20
2022-08-28T23:01:26.751Z,1.10
2022-08-28T23:06:29.656Z,1.25
2022-08-28T23:11:31.454Z,1.23
2022-08-28T23:16:33.435Z,1.20
2022-08-28T23:21:39.219Z,1.20
2022-08-28T23:26:46.380Z,1.42
2022-08-28T23:31:48.121Z,1.50
2022-08-28T23:36:50.077Z,1.10
2022-08-28T23:41:52.985Z,1.20
2022-08-28T23:46:54.412Z,1.40
2022-08-28T23:51:57.504Z,1.30
2022-08-28T23:56:58.951Z,1.48
